Latest Coastal Weather Observations for Cowley Beach (Defence)

IDQ60701

Issued at 2:42 am EST Friday 5 March 2021 (issued every 10 minutes, with the page automatically refreshed every 10 minutes)

About coastal observations | Map of coastal stations | Coastal observations for QLD | Marine services | Other Formats
Station Details ID: 032194 Name: COWLEY BEACH (DEFENCE) Lat: -17.69 Lon: 146.11 Height: 4.25 m
Data from the previous 72 hours. | See also: Recent months for locations in Queensland
Date/Time
EST
Wind Sea
Height
m
Swell Vis
km
Cloud Weather Temp
°C
Press
MSL
hPa
Rain since
9am
mm
Dir  Spd
kts
Gust
kts
Height
m
Period
s
Dir
05/02:30am SSE 5 10 - - - - - - - 26.4 - 0.4
05/02:00am SSE 4 8 - - - - - - - 26.6 - 0.0
05/01:30am S 4 8 - - - - - - - 26.9 - 0.0
05/01:00am SSE 4 11 - - - - - - - 27.1 - 0.0
05/12:30am SSE 4 8 - - - - - - - 27.1 - 0.0
05/12:00am SSE 3 7 - - - - - - - 27.1 - 0.0
 
Date/Time
EST
Wind Sea
Height
m
Swell Vis
km
Cloud Weather Temp
°C
Press
MSL
hPa
Rain since
9am
mm
Dir  Spd
kts
Gust
kts
Height
m
Period
s
Dir
04/11:30pm SSE 3 7 - - - - - - - 26.8 - 0.0
04/11:00pm SW 2 5 - - - - - - - 25.5 - 0.0
04/10:30pm SSW 3 4 - - - - - - - 25.4 - 0.0
04/10:00pm SW 2 3 - - - - - - - 24.7 - 0.0
04/09:30pm SW 1 2 - - - - - - - 24.7 - 0.0
04/09:00pm SW 1 3 - - - - - - - 24.8 - 0.0
04/08:30pm CALM 0 0 - - - - - - - 25.1 - 0.0
04/08:00pm SW 1 3 - - - - - - - 25.6 - 0.0
04/07:30pm SSW 2 5 - - - - - - - 26.2 - 0.0
04/07:00pm SSW 2 3 - - - - - - - 26.5 - 0.0
04/06:30pm S 4 7 - - - - - - - 27.5 - 0.0
04/06:00pm S 5 7 - - - - - - - 28.3 - 0.0
04/05:30pm S 5 8 - - - - - - - 29.1 - 0.0
04/05:00pm S 4 7 - - - - - - - 29.3 - 0.0
04/04:30pm S 4 8 - - - - - - - 29.7 - 0.0
04/04:00pm S 5 11 - - - - - - - 29.9 - 0.0
04/03:30pm S 6 13 - - - - - - - 30.0 - 0.0
04/03:00pm S 8 13 - - - - - - - 29.9 - 0.0
04/02:30pm S 8 15 - - - - - - - 30.1 - 0.0
04/02:00pm S 5 12 - - - - - - - 30.7 - 0.0
04/01:30pm S 7 12 - - - - - - - 30.5 - 0.0
04/01:00pm S 8 14 - - - - - - - 30.5 - 0.0
04/12:30pm S 9 15 - - - - - - - 30.3 - 0.0
04/12:00pm S 10 17 - - - - - - - 29.8 - 0.0
04/11:30am S 10 15 - - - - - - - 28.6 - 0.0
04/11:00am S 9 15 - - - - - - - 28.3 - 0.0
04/10:30am S 9 16 - - - - - - - 27.9 - 0.0
04/10:00am S 9 13 - - - - - - - 28.2 - 0.0
04/09:30am S 8 13 - - - - - - - 28.5 - 0.0
04/09:00am SSW 7 13 - - - - - - - 27.6 - 0.0
04/08:30am SSW 6 11 - - - - - - - 27.0 - 0.0
04/08:00am SSW 5 9 - - - - - - - 26.9 - 0.0
04/07:30am SSW 4 8 - - - - - - - 26.3 - 0.0
04/07:00am SW 4 7 - - - - - - - 25.6 - 0.0
04/06:30am SSW 4 7 - - - - - - - 26.3 - 0.0
04/06:00am SSW 7 15 - - - - - - - 26.6 - 0.0
04/05:30am SSW 6 11 - - - - - - - 26.7 - 0.0
04/05:00am S 8 12 - - - - - - - 26.8 - 0.0
04/04:30am S 7 11 - - - - - - - 26.9 - 0.0
04/04:00am SSW 6 11 - - - - - - - 27.0 - 0.0
04/03:30am SSW 6 12 - - - - - - - 26.9 - 0.0
04/03:00am S 7 10 - - - - - - - 27.0 - 0.0
04/02:30am S 8 12 - - - - - - - 27.1 - 0.0
04/02:00am SSW 7 13 - - - - - - - 27.0 - 0.0
04/01:30am S 6 12 - - - - - - - 27.2 - 0.0
04/01:00am S 7 11 - - - - - - - 27.4 - 0.0
04/12:30am S 7 13 - - - - - - - 27.3 - 0.0
04/12:00am S 7 12 - - - - - - - 27.3 - 0.0
 
Date/Time
EST
Wind Sea
Height
m
Swell Vis
km
Cloud Weather Temp
°C
Press
MSL
hPa
Rain since
9am
mm
Dir  Spd
kts
Gust
kts
Height
m
Period
s
Dir
03/11:30pm S 6 11 - - - - - - - 27.3 - 0.0
03/11:00pm S 7 11 - - - - - - - 27.4 - 0.0
03/10:30pm SSW 5 9 - - - - - - - 27.2 - 0.0
03/10:00pm S 6 10 - - - - - - - 27.3 - 0.0
03/09:30pm S 5 9 - - - - - - - 27.3 - 0.0
03/09:00pm S 6 11 - - - - - - - 27.4 - 0.0
03/08:30pm S 6 10 - - - - - - - 27.5 - 0.0
03/08:00pm S 5 9 - - - - - - - 27.6 - 0.0
03/07:30pm SSE 7 10 - - - - - - - 27.8 - 0.0
03/07:00pm SSE 5 11 - - - - - - - 27.9 - 0.0
03/06:30pm S 6 13 - - - - - - - 27.7 - 0.0
03/06:00pm S 7 10 - - - - - - - 27.8 - 0.0
03/05:30pm S 7 11 - - - - - - - 28.0 - 0.0
03/05:00pm S 5 8 - - - - - - - 28.0 - 0.0
03/04:30pm S 6 11 - - - - - - - 28.2 - 0.0
03/04:00pm S 6 11 - - - - - - - 28.7 - 0.0
03/03:30pm S 7 12 - - - - - - - 28.6 - 0.0
03/03:00pm S 9 14 - - - - - - - 28.8 - 0.0
03/02:30pm S 8 13 - - - - - - - 28.7 - 0.0
03/02:00pm S 8 15 - - - - - - - 28.5 - 0.0
03/01:30pm S 9 17 - - - - - - - 28.5 - 0.0
03/01:00pm S 9 17 - - - - - - - 28.4 - 0.0
03/12:30pm S 9 17 - - - - - - - 28.4 - 0.0
03/12:00pm S 10 18 - - - - - - - 28.3 - 0.0
03/11:30am S 10 18 - - - - - - - 28.5 - 0.0
03/11:00am S 10 18 - - - - - - - 28.2 - 0.0
03/10:30am S 9 18 - - - - - - - 27.9 - 0.0
03/10:00am S 8 13 - - - - - - - 27.6 - 0.0
03/09:30am S 8 15 - - - - - - - 27.1 - 0.0
03/09:00am SSW 7 13 - - - - - - - 26.9 - 0.6
03/08:30am S 8 13 - - - - - - - 26.9 - 0.6
03/08:00am S 8 17 - - - - - - - 26.7 - 0.6
03/07:30am S 8 13 - - - - - - - 26.7 - 0.6
03/07:00am S 8 15 - - - - - - - 26.6 - 0.6
03/06:30am S 8 14 - - - - - - - 26.5 - 0.6
03/06:00am S 8 14 - - - - - - - 26.7 - 0.6
03/05:30am S 9 14 - - - - - - - 26.6 - 0.6
03/05:00am S 9 15 - - - - - - - 26.6 - 0.6
03/04:30am SSW 8 15 - - - - - - - 26.5 - 0.6
03/04:00am SSW 7 11 - - - - - - - 26.3 - 0.6
03/03:30am SSW 6 12 - - - - - - - 26.4 - 0.6
03/03:00am SSW 4 7 - - - - - - - 25.5 - 0.6
03/02:30am SSW 5 9 - - - - - - - 26.3 - 0.6
03/02:00am SSW 5 10 - - - - - - - 25.9 - 0.6
03/01:30am SSW 3 6 - - - - - - - 25.3 - 0.6
03/01:00am SSW 4 7 - - - - - - - 26.1 - 0.6
03/12:30am S 5 9 - - - - - - - 26.5 - 0.6
03/12:00am SSE 7 12 - - - - - - Recent precip. 26.8 - 0.6
 
Date/Time
EST
Wind Sea
Height
m
Swell Vis
km
Cloud Weather Temp
°C
Press
MSL
hPa
Rain since
9am
mm
Dir  Spd
kts
Gust
kts
Height
m
Period
s
Dir
02/11:30pm SSE 7 13 - - - - - - - 26.6 - 0.6
02/11:00pm S 5 7 - - - - - - - 26.3 - 0.4
02/10:30pm SSW 5 7 - - - - - - - 26.2 - 0.4
02/10:00pm SSW 6 11 - - - - - - - 26.5 - 0.4
02/09:30pm S 6 11 - - - - - - - 26.8 - 0.4
02/09:00pm SSE 4 9 - - - - - - - 26.4 - 0.4
02/08:30pm SSE 6 11 - - - - - - - 26.5 - 0.4
02/08:00pm SSE 4 8 - - - - - - - 26.1 - 0.4
02/07:30pm SE 7 16 - - - - - - - 26.0 - 0.4
02/07:00pm SE 6 12 - - - - - - - 26.7 - 0.4
02/06:30pm SSE 7 16 - - - - - - - 26.8 - 0.4
02/06:00pm SSE 7 15 - - - - - - - 26.6 - 0.4
02/05:30pm SSE 6 10 - - - - - - - 26.5 - 0.4
02/05:00pm SE 6 12 - - - - - - - 26.9 - 0.4
02/04:30pm SE 5 10 - - - - - - - 26.5 - 0.4
02/04:00pm ESE 5 12 - - - - - - - 26.8 - 0.4
02/03:30pm SE 4 14 - - - - - - - 27.0 - 0.4
02/03:00pm S 6 14 - - - - - - - 27.4 - 0.4
02/02:30pm S 6 11 - - - - - - - 27.4 - 0.4
02/02:00pm S 8 14 - - - - - - - 28.5 - 0.4
02/01:30pm S 9 16 - - - - - - - 28.5 - 0.4
02/01:00pm S 9 15 - - - - - - - 29.5 - 0.4
02/12:30pm S 8 13 - - - - - - - 28.5 - 0.4
02/12:00pm SSW 8 20 - - - - - - - 27.7 - 0.4
02/11:30am SSW 8 14 - - - - - - - 27.1 - 0.4
02/11:00am SSW 8 16 - - - - - - - 26.4 - 0.4
02/10:30am SSW 7 11 - - - - - - - 24.7 - 0.4
02/10:00am SW 5 9 - - - - - - - 24.2 - 0.4
02/09:30am SSW 6 12 - - - - - - - 24.2 - 0.2
02/09:00am SSW 6 14 - - - - - - Recent precip. 23.7 - 216.0
02/08:30am SSW 5 10 - - - - - - - 23.4 - 216.0
02/08:00am SSW 6 12 - - - - - - - 23.3 - 215.4
02/07:30am SSW 7 12 - - - - - - - 23.4 - 214.6
02/07:00am S 8 14 - - - - - - - 23.9 - 212.8
02/06:30am SSW 6 10 - - - - - - - 23.7 - 212.2
02/06:00am S 6 11 - - - - - - - 24.9 - 211.8
02/05:30am S 5 11 - - - - - - - 24.8 - 211.8
02/05:00am S 5 10 - - - - - - - 24.8 - 211.8
02/04:30am S 6 11 - - - - - - - 25.0 - 211.8
02/04:00am S 6 12 - - - - - - - 25.1 - 211.8
02/03:30am S 9 16 - - - - - - - 25.1 - 211.8
02/03:00am S 8 13 - - - - - - Recent precip. 25.9 - 211.6

Other formats

Comma delimited format used in spreadsheet applications
http://www.bom.gov.au/fwo/IDQ60701/IDQ60701.99218.axf

JavaScript Object Notation format (JSON) in row-major order
http://www.bom.gov.au/fwo/IDQ60701/IDQ60701.99218.json

Data quality

Most of these data are generated automatically and are frequently updated. Quality checks on data are not normally performed. It is possible for incorrect values to appear. Refer to information at About Latest Weather Observations and please check the disclaimer before using these data.